createdAt,value
2023-03-16T00:56:12.429Z,26.04
2023-03-16T01:00:13.521Z,26.05
2023-03-16T01:04:13.717Z,26.05
2023-03-16T01:08:13.936Z,26.03
2023-03-16T01:12:14.202Z,26.03
2023-03-16T01:16:14.517Z,26.04
2023-03-16T01:20:14.666Z,26.01
2023-03-16T01:24:14.913Z,26.00
2023-03-16T01:28:15.160Z,26.00
2023-03-16T04:00:24.440Z,25.88
2023-03-16T04:04:24.544Z,25.88
2023-03-16T04:08:24.676Z,25.91
2023-03-16T04:20:24.989Z,25.88
2023-03-16T06:44:33.750Z,26.08
2023-03-16T06:48:33.773Z,26.07
2023-03-16T06:52:33.788Z,26.13
2023-03-16T06:56:34.262Z,26.14
2023-03-16T07:00:34.347Z,26.17
2023-03-16T07:12:34.761Z,26.17
2023-03-16T07:16:34.423Z,26.21
2023-03-16T07:32:34.848Z,26.31
2023-03-16T07:36:34.789Z,26.34
2023-03-16T08:00:34.766Z,26.53
2023-03-16T08:04:34.948Z,26.56
2023-03-16T08:08:35.295Z,26.59
2023-03-16T08:12:35.380Z,26.64
2023-03-16T08:16:35.277Z,26.68
2023-03-16T08:20:35.420Z,26.73
2023-03-16T08:24:35.817Z,26.76
2023-03-16T08:28:35.832Z,26.80
2023-03-16T08:32:35.990Z,26.85
2023-03-16T08:36:35.813Z,26.89
2023-03-16T08:40:35.833Z,26.90
2023-03-16T10:04:38.322Z,25.65
2023-03-16T10:08:38.314Z,25.70
2023-03-16T10:16:38.939Z,25.73
2023-03-16T10:24:38.530Z,25.70
2023-03-16T10:28:38.823Z,25.53
2023-03-16T10:32:39.380Z,25.45
2023-03-16T10:36:39.838Z,25.39
2023-03-16T10:40:39.350Z,25.41
2023-03-16T10:44:39.447Z,25.38
2023-03-16T10:48:40.356Z,25.33
2023-03-16T10:52:40.334Z,25.31
2023-03-16T10:56:40.247Z,25.18
2023-03-16T11:00:40.358Z,24.99
2023-03-16T11:04:41.001Z,25.03
2023-03-16T11:08:40.846Z,25.10
2023-03-16T11:12:40.859Z,24.99
2023-03-16T11:16:40.978Z,24.97
2023-03-16T11:20:42.378Z,24.97
2023-03-16T11:24:41.360Z,24.95
2023-03-16T11:28:41.375Z,25.07
2023-03-16T11:32:41.452Z,25.42
2023-03-16T11:36:41.385Z,25.79
2023-03-16T11:40:41.857Z,26.09
2023-03-16T11:44:41.103Z,26.32
2023-03-16T11:48:41.365Z,26.51
2023-03-16T11:52:41.387Z,26.63
2023-03-16T11:56:41.878Z,26.79
2023-03-16T12:00:41.869Z,26.91
2023-03-16T12:04:41.516Z,27.03
2023-03-16T12:08:42.038Z,27.10
2023-03-16T12:12:41.857Z,27.15
2023-03-16T12:16:49.033Z,27.25
2023-03-16T12:20:41.854Z,27.27
2023-03-16T12:24:41.382Z,27.33
2023-03-16T12:28:41.359Z,27.37
2023-03-16T12:32:41.401Z,27.41
2023-03-16T12:36:41.364Z,27.51
2023-03-16T12:40:42.140Z,27.45
2023-03-16T12:44:41.371Z,27.38
2023-03-16T12:48:41.371Z,27.27
2023-03-16T12:52:41.377Z,27.21
2023-03-16T12:56:41.409Z,27.17
2023-03-16T13:00:41.040Z,27.08
2023-03-16T13:04:41.407Z,27.03
2023-03-16T13:08:41.379Z,26.98
2023-03-16T13:12:41.420Z,26.97
2023-03-16T13:16:41.477Z,26.98
2023-03-16T13:20:41.882Z,26.97
2023-03-16T13:24:41.507Z,26.91
2023-03-16T13:28:41.942Z,26.87
2023-03-16T13:32:41.909Z,26.82
2023-03-16T13:36:41.868Z,26.76
2023-03-16T13:40:42.395Z,26.72
2023-03-16T13:44:42.438Z,26.72
2023-03-16T13:48:42.396Z,26.69
2023-03-16T13:52:42.555Z,26.64
2023-03-16T13:56:42.898Z,26.62
2023-03-16T14:00:42.925Z,26.60
2023-03-16T14:04:43.591Z,26.62
2023-03-16T14:08:43.402Z,26.59
2023-03-16T14:12:43.943Z,26.53
2023-03-16T14:16:43.930Z,26.53
2023-03-16T14:20:43.762Z,26.55
2023-03-16T14:24:44.417Z,26.52
2023-03-16T14:28:44.166Z,26.48
2023-03-16T14:32:44.500Z,26.45
2023-03-16T14:36:44.916Z,26.49
2023-03-16T14:40:44.917Z,26.38
2023-03-16T14:44:45.418Z,26.21
2023-03-16T14:48:45.449Z,26.27
2023-03-16T14:52:45.422Z,26.34
2023-03-16T14:56:45.423Z,26.41
2023-03-16T15:00:52.854Z,26.46
2023-03-16T15:04:45.164Z,26.49
2023-03-16T15:08:45.427Z,26.53
2023-03-16T15:12:45.158Z,26.52
2023-03-16T15:16:45.432Z,26.55
2023-03-16T15:20:45.157Z,26.51
2023-03-16T15:24:45.435Z,26.51
2023-03-16T15:28:45.441Z,26.51
2023-03-16T15:32:45.185Z,26.48
2023-03-16T15:36:45.963Z,26.45
2023-03-16T15:40:45.456Z,26.45
2023-03-16T15:44:45.640Z,26.43
2023-03-16T15:48:45.941Z,26.39
2023-03-16T15:52:45.968Z,26.38
2023-03-16T15:56:53.830Z,26.38
2023-03-16T16:00:46.457Z,26.34
2023-03-16T16:04:45.946Z,26.34
2023-03-16T16:08:45.984Z,26.32
2023-03-16T16:12:46.038Z,26.30
2023-03-16T16:16:46.550Z,26.31
2023-03-16T16:20:46.553Z,26.30
2023-03-16T16:28:46.450Z,26.28
2023-03-16T16:32:46.968Z,26.27
2023-03-16T16:36:46.803Z,26.24
2023-03-16T16:40:47.070Z,26.21
2023-03-16T16:44:47.267Z,26.25
2023-03-16T16:48:47.510Z,26.21
2023-03-16T16:52:47.774Z,26.22
2023-03-16T16:56:48.027Z,26.22
2023-03-16T17:00:48.524Z,26.20
2023-03-16T17:04:48.531Z,26.20
2023-03-16T17:08:48.730Z,26.20
2023-03-16T17:12:49.021Z,26.21
2023-03-16T17:16:49.296Z,26.21
2023-03-16T17:20:49.589Z,26.20
2023-03-16T17:24:49.495Z,26.18
2023-03-16T17:28:49.524Z,26.18
2023-03-16T17:32:49.575Z,26.18
2023-03-16T17:36:49.510Z,26.21
2023-03-16T17:40:49.484Z,26.18
2023-03-16T17:44:49.526Z,26.17
2023-03-16T17:48:49.497Z,26.17
2023-03-16T17:52:49.742Z,26.18
2023-03-16T17:56:50.058Z,26.15
2023-03-16T18:00:50.275Z,26.15
2023-03-16T18:04:50.240Z,26.15
2023-03-16T18:08:50.224Z,26.15
2023-03-16T18:12:50.227Z,26.13
2023-03-16T18:16:50.261Z,26.13
2023-03-16T18:20:50.233Z,26.13
2023-03-16T18:24:50.247Z,26.11
2023-03-16T18:28:50.294Z,26.09
2023-03-16T18:32:50.370Z,26.11
2023-03-16T18:36:50.282Z,26.11
2023-03-16T18:40:50.285Z,26.08
2023-03-16T18:44:50.291Z,26.09
2023-03-16T18:48:50.317Z,26.11
2023-03-16T18:52:50.309Z,26.07
2023-03-16T18:56:50.323Z,26.07
2023-03-16T19:00:50.366Z,26.05
2023-03-16T19:04:50.427Z,26.08
2023-03-16T19:08:50.360Z,26.07
2023-03-16T19:12:50.392Z,26.07
2023-03-16T19:16:50.420Z,26.05
2023-03-16T19:20:50.620Z,26.05
2023-03-16T19:24:50.630Z,26.07
2023-03-16T19:28:50.648Z,26.05
2023-03-16T19:32:50.749Z,26.07
2023-03-16T19:36:50.712Z,26.05
2023-03-16T19:40:50.715Z,26.04
2023-03-16T19:44:50.736Z,26.03
2023-03-16T19:48:50.857Z,26.03
2023-03-16T19:52:50.895Z,26.03
2023-03-16T19:56:50.899Z,26.05
2023-03-16T20:00:50.948Z,26.01
2023-03-16T20:04:50.934Z,26.01
2023-03-16T20:08:50.981Z,26.01
2023-03-16T20:12:50.989Z,26.01
2023-03-16T20:16:51.201Z,26.03
2023-03-16T20:20:51.183Z,26.01
2023-03-16T20:24:51.285Z,26.01
2023-03-16T20:28:51.545Z,26.01
2023-03-16T20:32:51.282Z,26.00
2023-03-16T20:36:51.335Z,26.01
2023-03-16T20:40:51.354Z,26.01
2023-03-16T20:44:51.500Z,26.00
2023-03-16T20:48:51.563Z,26.00
2023-03-16T20:52:52.061Z,26.01
2023-03-16T20:56:51.602Z,26.00
2023-03-16T21:00:51.576Z,26.00
2023-03-16T21:04:51.641Z,25.96
2023-03-16T21:08:51.762Z,26.00
2023-03-16T21:12:51.782Z,25.98
2023-03-16T21:16:51.780Z,25.97
2023-03-16T21:20:51.836Z,25.97
2023-03-16T21:24:51.879Z,25.98
2023-03-16T21:28:51.934Z,25.96
2023-03-16T21:32:51.985Z,25.97
2023-03-16T21:36:52.098Z,25.98
2023-03-16T21:40:52.145Z,25.98
2023-03-16T21:44:52.213Z,25.98
2023-03-16T21:48:52.253Z,25.97
2023-03-16T21:52:52.305Z,26.00
